Serebrjanye Prudy, Russia
Current Conditions -  °F | °C
As of 7:30 PM on Thursday 30 Oct 2014 (Local Time) from UUDD Reporting Station
Broken Clouds Broken Clouds  
Wind Chill: 35°   Ceiling: 10000
Heat Index: 41°   Visibility: 4mi
Dew Point: 25°   Wind: 9mph
Humidity: 53%   Direction: 220°SW
Pressure: 30.15"   Gusts: NA
Location:  54.46°N, 38.72°E
Report Text: UUDD 301630Z 22004MPS 6000 BKN100 05/M04 Q1021 6401009514010095 NOSIG
Loading
Personal Weather Stations






























Interactive Weather Map
Tropical Storm Tracking
New forecast layout! Learn more

10-Day Weather Forecast

Advertisements
Track Severe Weather on mobile